Terminal Aerodrome Forecast
Issued by NWS Twin Cities, MN

Home | Current Version | Previous Version | Graphics & Text | Print | Product List | Glossary On
Versions: 1 2 3 4 5 6 7 8 9 10 11 12
000
FTUS43 KMPX 271700
TAFEAU
TAF
KEAU 271720Z 2718/2818 03005KT P6SM FEW035 SCT120 SCT250
     FM281000 12004KT 4SM BR BKN100
     FM281300 14005KT P6SM BKN050 OVC090=

USA.gov is the U.S. government's official web portal to all federal, state and local government web resources and services.